sensor_id;sensor_type;location;lat;lon;timestamp;pressure;altitude;pressure_sealevel;temperature;humidity
57948;BME280;43754;56.992;24.292;2022-12-18T00:01:19;102808.91;;;-8.41;100.00
57948;BME280;43754;56.992;24.292;2022-12-18T00:03:52;102803.72;;;-8.40;100.00
57948;BME280;43754;56.992;24.292;2022-12-18T00:06:27;102808.91;;;-8.43;100.00
57948;BME280;43754;56.992;24.292;2022-12-18T00:09:00;102806.31;;;-8.40;100.00
57948;BME280;43754;56.992;24.292;2022-12-18T00:11:32;102803.66;;;-8.33;100.00
57948;BME280;43754;56.992;24.292;2022-12-18T00:14:06;102808.91;;;-8.40;100.00
57948;BME280;43754;56.992;24.292;2022-12-18T00:16:38;102816.69;;;-8.35;100.00
57948;BME280;43754;56.992;24.292;2022-12-18T00:19:11;102805.41;;;-8.35;100.00
57948;BME280;43754;56.992;24.292;2022-12-18T00:21:43;102815.78;;;-8.32;100.00
57948;BME280;43754;56.992;24.292;2022-12-18T00:24:15;102815.72;;;-8.23;100.00
57948;BME280;43754;56.992;24.292;2022-12-18T00:26:47;102814.81;;;-8.19;100.00
57948;BME280;43754;56.992;24.292;2022-12-18T00:29:21;102826.94;;;-8.20;100.00
57948;BME280;43754;56.992;24.292;2022-12-18T00:31:53;102831.25;;;-8.14;100.00
57948;BME280;43754;56.992;24.292;2022-12-18T00:34:25;102830.38;;;-8.16;100.00
57948;BME280;43754;56.992;24.292;2022-12-18T00:36:57;102830.38;;;-8.18;100.00
57948;BME280;43754;56.992;24.292;2022-12-18T00:39:29;102821.69;;;-8.14;100.00
57948;BME280;43754;56.992;24.292;2022-12-18T00:42:01;102822.56;;;-8.12;100.00
57948;BME280;43754;56.992;24.292;2022-12-18T00:44:53;102823.34;;;-8.04;100.00
57948;BME280;43754;56.992;24.292;2022-12-18T00:47:25;102821.59;;;-7.99;100.00
57948;BME280;43754;56.992;24.292;2022-12-18T00:49:57;102819.00;;;-8.00;100.00
57948;BME280;43754;56.992;24.292;2022-12-18T00:52:29;102819.00;;;-8.00;100.00
57948;BME280;43754;56.992;24.292;2022-12-18T00:55:01;102821.56;;;-7.97;100.00
57948;BME280;43754;56.992;24.292;2022-12-18T00:57:37;102818.97;;;-7.96;100.00
57948;BME280;43754;56.992;24.292;2022-12-18T01:00:14;102825.00;;;-7.89;100.00
57948;BME280;43754;56.992;24.292;2022-12-18T01:02:46;102811.09;;;-7.86;100.00
57948;BME280;43754;56.992;24.292;2022-12-18T01:05:18;102818.91;;;-7.86;100.00
57948;BME280;43754;56.992;24.292;2022-12-18T01:07:50;102822.41;;;-7.89;100.00
57948;BME280;43754;56.992;24.292;2022-12-18T01:10:24;102815.47;;;-7.90;100.00
57948;BME280;43754;56.992;24.292;2022-12-18T01:12:56;102818.03;;;-7.85;100.00
57948;BME280;43754;56.992;24.292;2022-12-18T01:15:30;102813.69;;;-7.86;100.00
57948;BME280;43754;56.992;24.292;2022-12-18T01:18:02;102816.31;;;-7.89;100.00
57948;BME280;43754;56.992;24.292;2022-12-18T01:20:37;102818.06;;;-7.92;100.00
57948;BME280;43754;56.992;24.292;2022-12-18T01:23:09;102818.94;;;-7.93;100.00
57948;BME280;43754;56.992;24.292;2022-12-18T01:25:41;102812.03;;;-7.95;100.00
57948;BME280;43754;56.992;24.292;2022-12-18T01:28:14;102816.34;;;-7.96;100.00
57948;BME280;43754;56.992;24.292;2022-12-18T01:30:47;102816.38;;;-8.00;100.00
57948;BME280;43754;56.992;24.292;2022-12-18T01:33:19;102816.41;;;-8.02;100.00
57948;BME280;43754;56.992;24.292;2022-12-18T01:35:51;102818.19;;;-8.07;100.00
57948;BME280;43754;56.992;24.292;2022-12-18T01:38:25;102819.94;;;-8.12;100.00
57948;BME280;43754;56.992;24.292;2022-12-18T01:40:57;102824.28;;;-8.14;100.00
57948;BME280;43754;56.992;24.292;2022-12-18T01:43:47;102820.00;;;-8.19;100.00
57948;BME280;43754;56.992;24.292;2022-12-18T01:46:22;102817.44;;;-8.22;100.00
57948;BME280;43754;56.992;24.292;2022-12-18T01:48:57;102822.63;;;-8.21;100.00
57948;BME280;43754;56.992;24.292;2022-12-18T01:51:30;102827.84;;;-8.24;100.00
57948;BME280;43754;56.992;24.292;2022-12-18T01:54:02;102826.06;;;-8.22;100.00
57948;BME280;43754;56.992;24.292;2022-12-18T01:56:34;102834.81;;;-8.27;100.00
57948;BME280;43754;56.992;24.292;2022-12-18T01:59:09;102826.22;;;-8.39;100.00
57948;BME280;43754;56.992;24.292;2022-12-18T02:01:43;102833.22;;;-8.44;100.00
57948;BME280;43754;56.992;24.292;2022-12-18T02:04:20;102828.06;;;-8.53;100.00
57948;BME280;43754;56.992;24.292;2022-12-18T02:06:57;102824.59;;;-8.58;100.00
57948;BME280;43754;56.992;24.292;2022-12-18T02:09:38;102825.47;;;-8.63;100.00
57948;BME280;43754;56.992;24.292;2022-12-18T02:12:17;102815.97;;;-8.67;100.00
57948;BME280;43754;56.992;24.292;2022-12-18T02:14:55;102820.31;;;-8.71;100.00
57948;BME280;43754;56.992;24.292;2022-12-18T02:17:33;102816.91;;;-8.79;100.00
57948;BME280;43754;56.992;24.292;2022-12-18T02:20:13;102818.66;;;-8.82;100.00
57948;BME280;43754;56.992;24.292;2022-12-18T02:23:04;102823.00;;;-8.86;100.00
57948;BME280;43754;56.992;24.292;2022-12-18T02:25:55;102830.84;;;-8.94;100.00
57948;BME280;43754;56.992;24.292;2022-12-18T02:28:36;102836.91;;;-8.95;100.00
57948;BME280;43754;56.992;24.292;2022-12-18T02:31:13;102840.38;;;-8.99;100.00
57948;BME280;43754;56.992;24.292;2022-12-18T02:33:47;102833.44;;;-8.98;100.00
57948;BME280;43754;56.992;24.292;2022-12-18T02:36:22;102833.44;;;-9.01;100.00
57948;BME280;43754;56.992;24.292;2022-12-18T02:38:58;102830.88;;;-9.03;100.00
57948;BME280;43754;56.992;24.292;2022-12-18T02:41:34;102833.50;;;-9.10;100.00
57948;BME280;43754;56.992;24.292;2022-12-18T02:44:11;102846.47;;;-9.10;100.00
57948;BME280;43754;56.992;24.292;2022-12-18T02:46:45;102843.88;;;-9.12;100.00
57948;BME280;43754;56.992;24.292;2022-12-18T02:49:26;102847.34;;;-9.14;100.00
57948;BME280;43754;56.992;24.292;2022-12-18T02:52:09;102855.97;;;-9.03;100.00
57948;BME280;43754;56.992;24.292;2022-12-18T02:54:57;102856.78;;;-8.88;100.00
57948;BME280;43754;56.992;24.292;2022-12-18T02:57:39;102858.47;;;-8.70;100.00
57948;BME280;43754;56.992;24.292;2022-12-18T03:00:16;102864.47;;;-8.56;100.00
57948;BME280;43754;56.992;24.292;2022-12-18T03:02:55;102864.41;;;-8.44;100.00
57948;BME280;43754;56.992;24.292;2022-12-18T03:05:34;102866.09;;;-8.38;100.00
57948;BME280;43754;56.992;24.292;2022-12-18T03:08:12;102868.66;;;-8.30;100.00
57948;BME280;43754;56.992;24.292;2022-12-18T03:10:52;102864.34;;;-8.31;100.00
57948;BME280;43754;56.992;24.292;2022-12-18T03:13:30;102868.59;;;-8.26;100.00
57948;BME280;43754;56.992;24.292;2022-12-18T03:16:05;102866.84;;;-8.22;100.00
57948;BME280;43754;56.992;24.292;2022-12-18T03:18:42;102863.38;;;-8.26;100.00
57948;BME280;43754;56.992;24.292;2022-12-18T03:21:20;102861.75;;;-8.31;100.00
57948;BME280;43754;56.992;24.292;2022-12-18T03:23:55;102857.44;;;-8.42;100.00
57948;BME280;43754;56.992;24.292;2022-12-18T03:26:31;102856.63;;;-8.48;100.00
57948;BME280;43754;56.992;24.292;2022-12-18T03:29:09;102854.88;;;-8.49;100.00
57948;BME280;43754;56.992;24.292;2022-12-18T03:31:48;102856.59;;;-8.47;100.00
57948;BME280;43754;56.992;24.292;2022-12-18T03:34:25;102865.25;;;-8.42;100.00
57948;BME280;43754;56.992;24.292;2022-12-18T03:37:01;102865.22;;;-8.39;100.00
57948;BME280;43754;56.992;24.292;2022-12-18T03:39:35;102859.13;;;-8.34;100.00
57948;BME280;43754;56.992;24.292;2022-12-18T03:42:11;102852.19;;;-8.29;100.00
57948;BME280;43754;56.992;24.292;2022-12-18T03:44:57;102848.66;;;-8.25;100.00
57948;BME280;43754;56.992;24.292;2022-12-18T03:47:35;102846.91;;;-8.23;100.00
57948;BME280;43754;56.992;24.292;2022-12-18T03:50:14;102846.91;;;-8.25;100.00
57948;BME280;43754;56.992;24.292;2022-12-18T03:52:55;102849.53;;;-8.28;100.00
57948;BME280;43754;56.992;24.292;2022-12-18T03:55:32;102851.34;;;-8.34;100.00
57948;BME280;43754;56.992;24.292;2022-12-18T03:58:09;102854.84;;;-8.40;100.00
57948;BME280;43754;56.992;24.292;2022-12-18T04:01:00;102847.94;;;-8.47;100.00
57948;BME280;43754;56.992;24.292;2022-12-18T04:03:34;102850.59;;;-8.59;100.00
57948;BME280;43754;56.992;24.292;2022-12-18T04:06:08;102858.41;;;-8.64;100.00
57948;BME280;43754;56.992;24.292;2022-12-18T04:08:42;102850.66;;;-8.70;100.00
57948;BME280;43754;56.992;24.292;2022-12-18T04:11:18;102854.13;;;-8.75;100.00
57948;BME280;43754;56.992;24.292;2022-12-18T04:13:55;102860.25;;;-8.81;100.00
57948;BME280;43754;56.992;24.292;2022-12-18T04:16:29;102858.53;;;-8.91;100.00
57948;BME280;43754;56.992;24.292;2022-12-18T04:19:05;102858.53;;;-8.94;100.00
57948;BME280;43754;56.992;24.292;2022-12-18T04:21:43;102859.41;;;-9.00;100.00
57948;BME280;43754;56.992;24.292;2022-12-18T04:24:16;102858.56;;;-9.05;100.00
57948;BME280;43754;56.992;24.292;2022-12-18T04:26:57;102859.47;;;-9.10;100.00
57948;BME280;43754;56.992;24.292;2022-12-18T04:29:35;102856.00;;;-9.17;100.00
57948;BME280;43754;56.992;24.292;2022-12-18T04:32:08;102863.78;;;-9.21;100.00
57948;BME280;43754;56.992;24.292;2022-12-18T04:34:41;102869.03;;;-9.27;100.00
57948;BME280;43754;56.992;24.292;2022-12-18T04:37:14;102870.75;;;-9.33;100.00
57948;BME280;43754;56.992;24.292;2022-12-18T04:39:47;102877.69;;;-9.36;100.00
57948;BME280;43754;56.992;24.292;2022-12-18T04:42:26;102886.31;;;-9.39;100.00
57948;BME280;43754;56.992;24.292;2022-12-18T04:44:58;102879.41;;;-9.41;100.00
57948;BME280;43754;56.992;24.292;2022-12-18T04:47:31;102882.00;;;-9.41;100.00
57948;BME280;43754;56.992;24.292;2022-12-18T04:50:04;102877.69;;;-9.47;100.00
57948;BME280;43754;56.992;24.292;2022-12-18T04:52:36;102882.03;;;-9.49;100.00
57948;BME280;43754;56.992;24.292;2022-12-18T04:55:08;102891.53;;;-9.54;100.00
57948;BME280;43754;56.992;24.292;2022-12-18T04:57:40;102886.34;;;-9.61;100.00
57948;BME280;43754;56.992;24.292;2022-12-18T05:00:13;102885.47;;;-9.62;100.00
57948;BME280;43754;56.992;24.292;2022-12-18T05:02:46;102875.97;;;-9.63;100.00
57948;BME280;43754;56.992;24.292;2022-12-18T05:05:19;102877.69;;;-9.63;100.00
57948;BME280;43754;56.992;24.292;2022-12-18T05:07:51;102882.91;;;-9.65;100.00
57948;BME280;43754;56.992;24.292;2022-12-18T05:10:22;102885.50;;;-9.65;100.00
57948;BME280;43754;56.992;24.292;2022-12-18T05:12:54;102895.00;;;-9.68;100.00
57948;BME280;43754;56.992;24.292;2022-12-18T05:15:33;102887.19;;;-9.76;100.00
57948;BME280;43754;56.992;24.292;2022-12-18T05:18:07;102898.47;;;-9.74;100.00
57948;BME280;43754;56.992;24.292;2022-12-18T05:20:39;102890.66;;;-9.72;100.00
57948;BME280;43754;56.992;24.292;2022-12-18T05:23:11;102895.00;;;-9.73;100.00
57948;BME280;43754;56.992;24.292;2022-12-18T05:25:46;102898.44;;;-9.72;100.00
57948;BME280;43754;56.992;24.292;2022-12-18T05:28:19;102897.56;;;-9.76;100.00
57948;BME280;43754;56.992;24.292;2022-12-18T05:30:51;102893.25;;;-9.79;100.00
57948;BME280;43754;56.992;24.292;2022-12-18T05:33:28;102902.75;;;-9.79;100.00
57948;BME280;43754;56.992;24.292;2022-12-18T05:36:01;102901.03;;;-9.82;100.00
57948;BME280;43754;56.992;24.292;2022-12-18T05:38:36;102901.00;;;-9.92;100.00
57948;BME280;43754;56.992;24.292;2022-12-18T05:41:09;102897.56;;;-9.94;100.00
57948;BME280;43754;56.992;24.292;2022-12-18T05:43:42;102894.97;;;-9.93;100.00
57948;BME280;43754;56.992;24.292;2022-12-18T05:46:15;102898.44;;;-9.94;100.00
57948;BME280;43754;56.992;24.292;2022-12-18T05:48:50;102904.47;;;-10.01;100.00
57948;BME280;43754;56.992;24.292;2022-12-18T05:51:22;102909.66;;;-9.99;100.00
57948;BME280;43754;56.992;24.292;2022-12-18T05:53:54;102895.81;;;-10.01;100.00
57948;BME280;43754;56.992;24.292;2022-12-18T05:56:27;102903.59;;;-10.07;100.00
57948;BME280;43754;56.992;24.292;2022-12-18T05:58:58;102904.44;;;-10.10;100.00
57948;BME280;43754;56.992;24.292;2022-12-18T06:01:30;102908.78;;;-10.12;100.00
57948;BME280;43754;56.992;24.292;2022-12-18T06:04:04;102911.34;;;-10.13;100.00
57948;BME280;43754;56.992;24.292;2022-12-18T06:06:37;102914.81;;;-10.14;100.00
57948;BME280;43754;56.992;24.292;2022-12-18T06:09:09;102915.72;;;-10.15;100.00
57948;BME280;43754;56.992;24.292;2022-12-18T06:11:41;102918.31;;;-10.18;100.00
57948;BME280;43754;56.992;24.292;2022-12-18T06:14:13;102923.50;;;-10.15;100.00
57948;BME280;43754;56.992;24.292;2022-12-18T06:16:45;102920.00;;;-10.14;100.00
57948;BME280;43754;56.992;24.292;2022-12-18T06:19:18;102923.50;;;-10.15;100.00
57948;BME280;43754;56.992;24.292;2022-12-18T06:21:50;102929.50;;;-10.18;100.00
57948;BME280;43754;56.992;24.292;2022-12-18T06:24:22;102928.69;;;-10.15;100.00
57948;BME280;43754;56.992;24.292;2022-12-18T06:26:54;102930.38;;;-10.14;100.00
57948;BME280;43754;56.992;24.292;2022-12-18T06:29:26;102920.84;;;-10.14;100.00
57948;BME280;43754;56.992;24.292;2022-12-18T06:31:58;102935.59;;;-10.16;100.00
57948;BME280;43754;56.992;24.292;2022-12-18T06:34:34;102939.91;;;-10.15;100.00
57948;BME280;43754;56.992;24.292;2022-12-18T06:37:06;102929.53;;;-10.19;100.00
57948;BME280;43754;56.992;24.292;2022-12-18T06:39:38;102937.31;;;-10.19;100.00
57948;BME280;43754;56.992;24.292;2022-12-18T06:42:10;102932.97;;;-10.20;100.00
57948;BME280;43754;56.992;24.292;2022-12-18T06:44:42;102938.16;;;-10.22;100.00
57948;BME280;43754;56.992;24.292;2022-12-18T06:47:14;102940.75;;;-10.23;100.00
57948;BME280;43754;56.992;24.292;2022-12-18T06:49:47;102941.59;;;-10.24;100.00
57948;BME280;43754;56.992;24.292;2022-12-18T06:52:19;102945.06;;;-10.29;100.00
57948;BME280;43754;56.992;24.292;2022-12-18T06:54:51;102947.66;;;-10.27;100.00
57948;BME280;43754;56.992;24.292;2022-12-18T06:57:23;102947.66;;;-10.29;100.00
57948;BME280;43754;56.992;24.292;2022-12-18T06:59:55;102951.09;;;-10.33;100.00
57948;BME280;43754;56.992;24.292;2022-12-18T07:02:27;102949.34;;;-10.31;100.00
57948;BME280;43754;56.992;24.292;2022-12-18T07:05:01;102959.72;;;-10.29;100.00
57948;BME280;43754;56.992;24.292;2022-12-18T07:07:41;102958.88;;;-10.27;100.00
57948;BME280;43754;56.992;24.292;2022-12-18T07:10:13;102961.50;;;-10.23;100.00
57948;BME280;43754;56.992;24.292;2022-12-18T07:12:45;102971.03;;;-10.15;100.00
57948;BME280;43754;56.992;24.292;2022-12-18T07:15:17;102974.47;;;-10.11;100.00
57948;BME280;43754;56.992;24.292;2022-12-18T07:17:49;102980.53;;;-10.11;100.00
57948;BME280;43754;56.992;24.292;2022-12-18T07:20:22;102976.22;;;-10.07;100.00
57948;BME280;43754;56.992;24.292;2022-12-18T07:22:54;102971.03;;;-10.07;100.00
57948;BME280;43754;56.992;24.292;2022-12-18T07:25:27;102971.03;;;-10.04;100.00
57948;BME280;43754;56.992;24.292;2022-12-18T07:27:59;102977.09;;;-9.99;100.00
57948;BME280;43754;56.992;24.292;2022-12-18T07:30:31;102974.53;;;-9.98;100.00
57948;BME280;43754;56.992;24.292;2022-12-18T07:33:03;102971.91;;;-9.99;100.00
57948;BME280;43754;56.992;24.292;2022-12-18T07:35:36;102974.50;;;-9.96;100.00
57948;BME280;43754;56.992;24.292;2022-12-18T07:38:08;102983.16;;;-9.91;100.00
57948;BME280;43754;56.992;24.292;2022-12-18T07:40:40;102977.13;;;-9.89;100.00
57948;BME280;43754;56.992;24.292;2022-12-18T07:43:12;102984.06;;;-9.86;100.00
57948;BME280;43754;56.992;24.292;2022-12-18T07:45:44;102982.31;;;-9.83;100.00
57948;BME280;43754;56.992;24.292;2022-12-18T07:48:16;102983.19;;;-9.81;100.00
57948;BME280;43754;56.992;24.292;2022-12-18T07:50:49;102983.22;;;-9.73;100.00
57948;BME280;43754;56.992;24.292;2022-12-18T07:53:21;102975.44;;;-9.70;100.00
57948;BME280;43754;56.992;24.292;2022-12-18T07:55:55;102982.38;;;-9.66;100.00
57948;BME280;43754;56.992;24.292;2022-12-18T07:58:47;102981.50;;;-9.62;100.00
57948;BME280;43754;56.992;24.292;2022-12-18T08:01:19;102985.84;;;-9.58;100.00
57948;BME280;43754;56.992;24.292;2022-12-18T08:03:52;102990.19;;;-9.52;100.00
57948;BME280;43754;56.992;24.292;2022-12-18T08:06:25;102992.78;;;-9.48;100.00
57948;BME280;43754;56.992;24.292;2022-12-18T08:08:57;102986.72;;;-9.42;100.00
57948;BME280;43754;56.992;24.292;2022-12-18T08:11:29;102997.97;;;-9.33;100.00
57948;BME280;43754;56.992;24.292;2022-12-18T08:14:01;102990.19;;;-9.26;100.00
57948;BME280;43754;56.992;24.292;2022-12-18T08:16:33;103008.38;;;-9.20;100.00
57948;BME280;43754;56.992;24.292;2022-12-18T08:19:05;102998.88;;;-9.18;100.00
57948;BME280;43754;56.992;24.292;2022-12-18T08:21:41;102998.00;;;-9.14;100.00
57948;BME280;43754;56.992;24.292;2022-12-18T08:24:13;103005.75;;;-9.05;100.00
57948;BME280;43754;56.992;24.292;2022-12-18T08:26:45;103003.19;;;-8.99;100.00
57948;BME280;43754;56.992;24.292;2022-12-18T08:29:38;103004.91;;;-9.01;100.00
57948;BME280;43754;56.992;24.292;2022-12-18T08:32:10;103002.31;;;-8.89;100.00
57948;BME280;43754;56.992;24.292;2022-12-18T08:34:42;102997.94;;;-8.84;100.00
57948;BME280;43754;56.992;24.292;2022-12-18T08:37:15;103002.28;;;-8.72;100.00
57948;BME280;43754;56.992;24.292;2022-12-18T08:39:47;103009.19;;;-8.65;100.00
57948;BME280;43754;56.992;24.292;2022-12-18T08:42:19;103006.59;;;-8.56;100.00
57948;BME280;43754;56.992;24.292;2022-12-18T08:45:10;103005.69;;;-8.49;100.00
57948;BME280;43754;56.992;24.292;2022-12-18T08:47:42;103001.34;;;-8.44;100.00
57948;BME280;43754;56.992;24.292;2022-12-18T08:50:14;103012.59;;;-8.33;100.00
57948;BME280;43754;56.992;24.292;2022-12-18T08:52:47;103005.59;;;-8.25;100.00
57948;BME280;43754;56.992;24.292;2022-12-18T08:55:19;103009.03;;;-8.20;100.00
57948;BME280;43754;56.992;24.292;2022-12-18T08:57:53;103010.72;;;-8.07;100.00
57948;BME280;43754;56.992;24.292;2022-12-18T09:00:25;103006.38;;;-8.02;100.00
57948;BME280;43754;56.992;24.292;2022-12-18T09:02:57;103004.59;;;-7.94;100.00
57948;BME280;43754;56.992;24.292;2022-12-18T09:05:30;102999.38;;;-7.89;100.00
57948;BME280;43754;56.992;24.292;2022-12-18T09:08:03;103011.47;;;-7.82;100.00
57948;BME280;43754;56.992;24.292;2022-12-18T09:10:41;103003.69;;;-7.85;100.00
57948;BME280;43754;56.992;24.292;2022-12-18T09:13:15;103002.78;;;-7.76;100.00
57948;BME280;43754;56.992;24.292;2022-12-18T09:15:49;103004.44;;;-7.65;100.00
57948;BME280;43754;56.992;24.292;2022-12-18T09:18:22;103006.13;;;-7.56;100.00
57948;BME280;43754;56.992;24.292;2022-12-18T09:20:55;103006.91;;;-7.45;100.00
57948;BME280;43754;56.992;24.292;2022-12-18T09:23:28;103011.19;;;-7.35;100.00
57948;BME280;43754;56.992;24.292;2022-12-18T09:26:00;103003.28;;;-7.26;100.00
57948;BME280;43754;56.992;24.292;2022-12-18T09:28:32;103001.47;;;-7.18;100.00
57948;BME280;43754;56.992;24.292;2022-12-18T09:31:06;103002.28;;;-7.07;100.00
57948;BME280;43754;56.992;24.292;2022-12-18T09:33:39;103010.91;;;-7.00;100.00
57948;BME280;43754;56.992;24.292;2022-12-18T09:36:13;103002.22;;;-6.97;100.00
57948;BME280;43754;56.992;24.292;2022-12-18T09:38:46;102999.56;;;-6.93;100.00
57948;BME280;43754;56.992;24.292;2022-12-18T09:41:34;102996.84;;;-6.81;100.00
57948;BME280;43754;56.992;24.292;2022-12-18T09:44:15;102991.50;;;-6.70;100.00
57948;BME280;43754;56.992;24.292;2022-12-18T09:46:58;102988.81;;;-6.63;100.00
57948;BME280;43754;56.992;24.292;2022-12-18T09:49:36;102980.06;;;-6.57;100.00
57948;BME280;43754;56.992;24.292;2022-12-18T09:52:14;102982.63;;;-6.54;100.00
57948;BME280;43754;56.992;24.292;2022-12-18T09:54:52;102988.69;;;-6.47;100.00
57948;BME280;43754;56.992;24.292;2022-12-18T09:57:25;102986.78;;;-6.35;100.00
57948;BME280;43754;56.992;24.292;2022-12-18T10:00:02;102984.91;;;-6.25;100.00
57948;BME280;43754;56.992;24.292;2022-12-18T10:02:42;102989.19;;;-6.18;100.00
57948;BME280;43754;56.992;24.292;2022-12-18T10:05:17;102983.84;;;-6.09;100.00
57948;BME280;43754;56.992;24.292;2022-12-18T10:07:58;102995.06;;;-6.01;100.00
57948;BME280;43754;56.992;24.292;2022-12-18T10:10:38;102997.66;;;-5.99;100.00
57948;BME280;43754;56.992;24.292;2022-12-18T10:13:19;102994.16;;;-5.97;100.00
57948;BME280;43754;56.992;24.292;2022-12-18T10:16:04;102995.97;;;-6.03;100.00
57948;BME280;43754;56.992;24.292;2022-12-18T10:18:55;102998.31;;;-5.85;100.00
57948;BME280;43754;56.992;24.292;2022-12-18T10:21:32;103006.03;;;-5.78;100.00
57948;BME280;43754;56.992;24.292;2022-12-18T10:24:14;103005.09;;;-5.72;100.00
57948;BME280;43754;56.992;24.292;2022-12-18T10:26:52;103005.81;;;-5.61;100.00
57948;BME280;43754;56.992;24.292;2022-12-18T10:29:25;102999.59;;;-5.52;100.00
57948;BME280;43754;56.992;24.292;2022-12-18T10:31:57;103002.06;;;-5.43;100.00
57948;BME280;43754;56.992;24.292;2022-12-18T10:34:29;102993.19;;;-5.32;100.00
57948;BME280;43754;56.992;24.292;2022-12-18T10:37:03;102998.28;;;-5.24;100.00
57948;BME280;43754;56.992;24.292;2022-12-18T10:39:38;103004.31;;;-5.19;100.00
57948;BME280;43754;56.992;24.292;2022-12-18T10:42:16;102994.66;;;-5.14;100.00
57948;BME280;43754;56.992;24.292;2022-12-18T10:45:00;102992.78;;;-5.07;100.00
57948;BME280;43754;56.992;24.292;2022-12-18T10:47:34;102992.69;;;-5.03;100.00
57948;BME280;43754;56.992;24.292;2022-12-18T10:50:19;102993.56;;;-5.02;100.00
57948;BME280;43754;56.992;24.292;2022-12-18T10:53:00;102993.44;;;-4.96;100.00
57948;BME280;43754;56.992;24.292;2022-12-18T10:55:35;102991.75;;;-4.97;100.00
57948;BME280;43754;56.992;24.292;2022-12-18T10:58:26;102990.94;;;-5.01;100.00
57948;BME280;43754;56.992;24.292;2022-12-18T11:01:07;102997.06;;;-5.02;100.00
57948;BME280;43754;56.992;24.292;2022-12-18T11:03:41;102987.47;;;-5.01;100.00
57948;BME280;43754;56.992;24.292;2022-12-18T11:06:15;102985.72;;;-5.01;100.00
57948;BME280;43754;56.992;24.292;2022-12-18T11:08:58;102978.69;;;-4.99;100.00
57948;BME280;43754;56.992;24.292;2022-12-18T11:11:32;102983.97;;;-5.02;100.00
57948;BME280;43754;56.992;24.292;2022-12-18T11:14:16;102972.72;;;-5.05;100.00
57948;BME280;43754;56.992;24.292;2022-12-18T11:16:51;102985.00;;;-5.11;100.00
57948;BME280;43754;56.992;24.292;2022-12-18T11:19:44;102994.66;;;-5.16;100.00
57948;BME280;43754;56.992;24.292;2022-12-18T11:22:20;102982.44;;;-5.15;100.00
57948;BME280;43754;56.992;24.292;2022-12-18T11:24:57;102983.38;;;-5.18;100.00
57948;BME280;43754;56.992;24.292;2022-12-18T11:27:52;102974.75;;;-5.23;100.00
57948;BME280;43754;56.992;24.292;2022-12-18T11:30:28;102981.72;;;-5.25;100.00
57948;BME280;43754;56.992;24.292;2022-12-18T11:33:04;102987.00;;;-5.28;100.00
57948;BME280;43754;56.992;24.292;2022-12-18T11:35:44;102985.28;;;-5.27;100.00
57948;BME280;43754;56.992;24.292;2022-12-18T11:38:23;102982.78;;;-5.35;100.00
57948;BME280;43754;56.992;24.292;2022-12-18T11:40:58;102986.28;;;-5.36;100.00
57948;BME280;43754;56.992;24.292;2022-12-18T11:43:35;102985.41;;;-5.36;100.00
57948;BME280;43754;56.992;24.292;2022-12-18T11:46:13;102981.91;;;-5.35;100.00
57948;BME280;43754;56.992;24.292;2022-12-18T11:48:56;102983.63;;;-5.34;100.00
57948;BME280;43754;56.992;24.292;2022-12-18T11:51:34;102993.31;;;-5.39;100.00
57948;BME280;43754;56.992;24.292;2022-12-18T11:54:12;102988.94;;;-5.40;100.00
57948;BME280;43754;56.992;24.292;2022-12-18T11:56:48;102991.63;;;-5.43;100.00
57948;BME280;43754;56.992;24.292;2022-12-18T11:59:30;102995.97;;;-5.44;100.00
57948;BME280;43754;56.992;24.292;2022-12-18T12:05:29;102989.97;;;-5.50;100.00
57948;BME280;43754;56.992;24.292;2022-12-18T12:08:09;102987.41;;;-5.52;100.00
57948;BME280;43754;56.992;24.292;2022-12-18T12:10:52;102996.09;;;-5.53;100.00
57948;BME280;43754;56.992;24.292;2022-12-18T12:13:37;102997.03;;;-5.55;100.00
57948;BME280;43754;56.992;24.292;2022-12-18T12:16:17;103003.81;;;-5.45;100.00
57948;BME280;43754;56.992;24.292;2022-12-18T12:19:00;102995.16;;;-5.47;100.00
57948;BME280;43754;56.992;24.292;2022-12-18T12:21:39;102992.63;;;-5.52;100.00
57948;BME280;43754;56.992;24.292;2022-12-18T12:24:23;102985.66;;;-5.53;100.00
57948;BME280;43754;56.992;24.292;2022-12-18T12:27:07;102990.03;;;-5.53;100.00
57948;BME280;43754;56.992;24.292;2022-12-18T12:29:50;102990.91;;;-5.54;100.00
57948;BME280;43754;56.992;24.292;2022-12-18T12:32:43;102989.19;;;-5.55;100.00
57948;BME280;43754;56.992;24.292;2022-12-18T12:35:29;102985.72;;;-5.56;100.00
57948;BME280;43754;56.992;24.292;2022-12-18T12:38:08;102977.94;;;-5.61;100.00
57948;BME280;43754;56.992;24.292;2022-12-18T12:40:45;102982.38;;;-5.67;100.00
57948;BME280;43754;56.992;24.292;2022-12-18T12:43:33;102976.38;;;-5.74;100.00
57948;BME280;43754;56.992;24.292;2022-12-18T12:46:09;102977.31;;;-5.78;100.00
57948;BME280;43754;56.992;24.292;2022-12-18T12:48:43;102979.16;;;-5.86;100.00
57948;BME280;43754;56.992;24.292;2022-12-18T12:51:21;102976.56;;;-5.86;100.00
57948;BME280;43754;56.992;24.292;2022-12-18T12:53:55;102979.16;;;-5.86;100.00
57948;BME280;43754;56.992;24.292;2022-12-18T12:56:38;102979.25;;;-5.90;100.00
57948;BME280;43754;56.992;24.292;2022-12-18T12:59:15;102988.91;;;-5.95;100.00
57948;BME280;43754;56.992;24.292;2022-12-18T13:01:56;102986.31;;;-5.97;100.00
57948;BME280;43754;56.992;24.292;2022-12-18T13:04:35;102981.97;;;-5.98;100.00
57948;BME280;43754;56.992;24.292;2022-12-18T13:07:14;102979.44;;;-6.04;100.00
57948;BME280;43754;56.992;24.292;2022-12-18T13:10:13;102980.47;;;-6.16;100.00
57948;BME280;43754;56.992;24.292;2022-12-18T13:12:56;102981.31;;;-6.15;100.00
57948;BME280;43754;56.992;24.292;2022-12-18T13:15:40;102973.50;;;-6.14;100.00